Historique des mesures à Cassis (13260), France
Quotidien Résumé Mars 26, 2017 Unités:  US    Métrique   Métrique/US
« Précédent (Jour)
Suivant (Jour) »
Quotidien Hebdomadaire Mensuel Annuel Période au choix
  Maximum: Minimum: Moyenne:
Température: 32 °F 50.4 °F 56.1 °F
Point de rosée: 32 °F 43 °F 47.7 °F
Humidité: Humidity % 62 % 70 %
Vitesse du vent: WindSpeedKMH mph 0.0 mph 2.2 mph
Rafales: WindSpeedGustKMH mph - -
Vent:- - SSW
Pression: 0 in 30 in -
Précipitations: 0 in    
Historical Graphs
 
 
Mesures pour : Mars 26, 2017
Heure Temperature Point de rosée Pression Vent Vitesse du vent Rafales Humidité Pluie (par heure) Conditions
32 °F 32 °F 0 in Calm     Humidity % 0 in SoftwareType W/m2
00:11 52.5 °F 44.8 °F 30 in NW 2.1 mph 2.1 mph 75 % 0 in open2300-1.11 W/m2
01:10 51.3 °F 43.5 °F 30 in Calm   1.4 mph 75 % 0 in open2300-1.11 W/m2
03:11 50.4 °F 43 °F 30 in NW 2.9 mph 2.9 mph 76 % 0 in open2300-1.11 W/m2
04:11 50.9 °F 43.9 °F 30 in Calm     77 % 0 in open2300-1.11 W/m2
05:11 51.1 °F 44.1 °F 30 in Calm     77 % 0 in open2300-1.11 W/m2
06:11 51.4 °F 44.8 °F 30 in NNW 3.2 mph 3.2 mph 78 % 0 in open2300-1.11 W/m2
07:11 51.4 °F 44.8 °F 30 in NNE 1.8 mph 2.1 mph 78 % 0 in open2300-1.11 W/m2
08:11 50.7 °F 44.4 °F 30 in NW 4.3 mph 4.3 mph 79 % 0 in open2300-1.11 W/m2
09:11 53.2 °F 46.6 °F 30 in Calm   2.1 mph 78 % 0 in open2300-1.11 W/m2
10:11 56.5 °F 49.3 °F 30 in Calm   2.1 mph 77 % 0 in open2300-1.11 W/m2
11:11 58.8 °F 51.3 °F 30 in WSW 5.8 mph 5.8 mph 76 % 0 in open2300-1.11 W/m2
12:11 63.7 °F 54.1 °F 30.1 in South 2.9 mph 5.8 mph 71 % 0 in open2300-1.11 W/m2
13:11 64.2 °F 54 °F 30 in ESE 1.8 mph 6.1 mph 69 % 0 in open2300-1.11 W/m2
14:11 64.9 °F 54.1 °F 30 in South 4.7 mph 4.7 mph 68 % 0 in open2300-1.11 W/m2
15:11 64.8 °F 51.4 °F 30 in West 5.0 mph 5.8 mph 62 % 0 in open2300-1.11 W/m2
16:11 64 °F 52 °F 30 in SSW 6.4 mph 6.4 mph 65 % 0 in open2300-1.11 W/m2
17:11 63.3 °F 51.3 °F 30 in SSW 5.0 mph 6.8 mph 65 % 0 in open2300-1.11 W/m2
18:11 62.6 °F 51.4 °F 30 in SSW 3.5 mph 3.5 mph 67 % 0 in open2300-1.11 W/m2
19:11 60.6 °F 50.5 °F 30 in Calm   6.4 mph 69 % 0 in open2300-1.11 W/m2
20:11 59 °F 50 °F 30 in Calm     72 % 0 in open2300-1.11 W/m2
21:11 57 °F 48.4 °F 30 in Calm   4.0 mph 73 % 0 in open2300-1.11 W/m2
22:11 55.8 °F 47.8 °F 30 in Calm     75 % 0 in open2300-1.11 W/m2
23:11 54.7 °F 47.7 °F 30 in North 2.6 mph 2.6 mph 77 % 0 in open2300-1.11 W/m2
Observations météo à CASSIS
WU-History script by Weather Underground - 1 mb